sensor_id;sensor_type;location;lat;lon;timestamp;P1;durP1;ratioP1;P2;durP2;ratioP2
33413;SDS011;60055;41.884;12.534;2023-03-11T00:00:42;49.88;;;14.02;;
33413;SDS011;60055;41.884;12.534;2023-03-11T00:03:10;45.83;;;13.95;;
33413;SDS011;60055;41.884;12.534;2023-03-11T00:05:38;45.60;;;14.25;;
33413;SDS011;60055;41.884;12.534;2023-03-11T00:08:07;46.20;;;14.10;;
33413;SDS011;60055;41.884;12.534;2023-03-11T00:10:36;49.92;;;14.18;;
33413;SDS011;60055;41.884;12.534;2023-03-11T00:13:03;40.47;;;13.60;;
33413;SDS011;60055;41.884;12.534;2023-03-11T00:15:30;40.40;;;13.40;;
33413;SDS011;60055;41.884;12.534;2023-03-11T00:17:56;43.53;;;13.45;;
33413;SDS011;60055;41.884;12.534;2023-03-11T00:20:28;37.08;;;13.45;;
33413;SDS011;60055;41.884;12.534;2023-03-11T00:22:58;42.13;;;14.57;;
33413;SDS011;60055;41.884;12.534;2023-03-11T00:25:25;42.13;;;13.60;;
33413;SDS011;60055;41.884;12.534;2023-03-11T00:27:54;40.65;;;14.05;;
33413;SDS011;60055;41.884;12.534;2023-03-11T00:30:21;40.25;;;13.60;;
33413;SDS011;60055;41.884;12.534;2023-03-11T00:32:47;41.20;;;14.68;;
33413;SDS011;60055;41.884;12.534;2023-03-11T00:35:15;34.28;;;13.43;;
33413;SDS011;60055;41.884;12.534;2023-03-11T00:37:43;43.60;;;13.60;;
33413;SDS011;60055;41.884;12.534;2023-03-11T00:40:12;42.33;;;13.90;;
33413;SDS011;60055;41.884;12.534;2023-03-11T00:42:41;36.95;;;13.50;;
33413;SDS011;60055;41.884;12.534;2023-03-11T00:45:07;39.67;;;13.10;;
33413;SDS011;60055;41.884;12.534;2023-03-11T00:47:32;41.40;;;15.32;;
33413;SDS011;60055;41.884;12.534;2023-03-11T00:49:58;42.30;;;14.63;;
33413;SDS011;60055;41.884;12.534;2023-03-11T00:52:24;39.55;;;13.50;;
33413;SDS011;60055;41.884;12.534;2023-03-11T00:54:53;41.30;;;14.07;;
33413;SDS011;60055;41.884;12.534;2023-03-11T00:57:22;48.08;;;14.88;;
33413;SDS011;60055;41.884;12.534;2023-03-11T00:59:47;46.95;;;14.52;;
33413;SDS011;60055;41.884;12.534;2023-03-11T01:02:13;43.60;;;14.90;;
33413;SDS011;60055;41.884;12.534;2023-03-11T01:04:39;38.30;;;14.35;;
33413;SDS011;60055;41.884;12.534;2023-03-11T01:07:05;33.05;;;13.20;;
33413;SDS011;60055;41.884;12.534;2023-03-11T01:09:30;37.58;;;14.07;;
33413;SDS011;60055;41.884;12.534;2023-03-11T01:11:55;37.22;;;12.90;;
33413;SDS011;60055;41.884;12.534;2023-03-11T01:14:21;48.60;;;14.40;;
33413;SDS011;60055;41.884;12.534;2023-03-11T01:16:46;39.88;;;13.88;;
33413;SDS011;60055;41.884;12.534;2023-03-11T01:19:15;45.42;;;14.13;;
33413;SDS011;60055;41.884;12.534;2023-03-11T01:21:40;36.67;;;14.52;;
33413;SDS011;60055;41.884;12.534;2023-03-11T01:24:07;36.42;;;12.65;;
33413;SDS011;60055;41.884;12.534;2023-03-11T01:26:32;33.92;;;13.23;;
33413;SDS011;60055;41.884;12.534;2023-03-11T01:28:58;41.97;;;14.52;;
33413;SDS011;60055;41.884;12.534;2023-03-11T01:31:23;39.92;;;14.43;;
33413;SDS011;60055;41.884;12.534;2023-03-11T01:33:48;41.28;;;13.52;;
33413;SDS011;60055;41.884;12.534;2023-03-11T01:36:14;41.08;;;13.85;;
33413;SDS011;60055;41.884;12.534;2023-03-11T01:38:39;37.85;;;14.02;;
33413;SDS011;60055;41.884;12.534;2023-03-11T01:41:04;45.13;;;14.68;;
33413;SDS011;60055;41.884;12.534;2023-03-11T01:48:33;37.03;;;12.98;;
33413;SDS011;60055;41.884;12.534;2023-03-11T01:50:58;36.95;;;13.07;;
33413;SDS011;60055;41.884;12.534;2023-03-11T01:53:25;36.95;;;13.57;;
33413;SDS011;60055;41.884;12.534;2023-03-11T01:55:50;35.95;;;12.98;;
33413;SDS011;60055;41.884;12.534;2023-03-11T01:58:22;37.83;;;13.32;;
33413;SDS011;60055;41.884;12.534;2023-03-11T02:00:50;44.35;;;13.65;;
33413;SDS011;60055;41.884;12.534;2023-03-11T02:03:17;37.55;;;13.95;;
33413;SDS011;60055;41.884;12.534;2023-03-11T02:05:49;42.58;;;17.40;;
33413;SDS011;60055;41.884;12.534;2023-03-11T02:08:16;42.33;;;14.95;;
33413;SDS011;60055;41.884;12.534;2023-03-11T02:10:41;35.15;;;13.38;;
33413;SDS011;60055;41.884;12.534;2023-03-11T02:13:08;36.33;;;13.82;;
33413;SDS011;60055;41.884;12.534;2023-03-11T02:15:34;39.85;;;13.25;;
33413;SDS011;60055;41.884;12.534;2023-03-11T02:18:02;38.53;;;13.90;;
33413;SDS011;60055;41.884;12.534;2023-03-11T02:23:28;37.10;;;14.30;;
33413;SDS011;60055;41.884;12.534;2023-03-11T02:26:07;42.03;;;15.15;;
33413;SDS011;60055;41.884;12.534;2023-03-11T02:28:41;39.33;;;13.48;;
33413;SDS011;60055;41.884;12.534;2023-03-11T02:31:06;38.08;;;12.75;;
33413;SDS011;60055;41.884;12.534;2023-03-11T02:33:32;33.15;;;14.07;;
33413;SDS011;60055;41.884;12.534;2023-03-11T02:36:00;40.53;;;13.90;;
33413;SDS011;60055;41.884;12.534;2023-03-11T02:38:26;39.78;;;12.75;;
33413;SDS011;60055;41.884;12.534;2023-03-11T02:40:55;38.17;;;12.82;;
33413;SDS011;60055;41.884;12.534;2023-03-11T02:43:36;35.55;;;13.55;;
33413;SDS011;60055;41.884;12.534;2023-03-11T02:46:07;29.60;;;12.15;;
33413;SDS011;60055;41.884;12.534;2023-03-11T02:48:35;31.00;;;11.52;;
33413;SDS011;60055;41.884;12.534;2023-03-11T02:51:01;37.17;;;11.38;;
33413;SDS011;60055;41.884;12.534;2023-03-11T02:53:27;28.58;;;10.57;;
33413;SDS011;60055;41.884;12.534;2023-03-11T02:55:57;30.17;;;9.50;;
33413;SDS011;60055;41.884;12.534;2023-03-11T02:58:22;30.90;;;10.60;;
33413;SDS011;60055;41.884;12.534;2023-03-11T03:00:48;27.45;;;9.18;;
33413;SDS011;60055;41.884;12.534;2023-03-11T03:03:13;24.25;;;8.88;;
33413;SDS011;60055;41.884;12.534;2023-03-11T03:05:39;30.20;;;9.75;;
33413;SDS011;60055;41.884;12.534;2023-03-11T03:08:04;25.75;;;9.02;;
33413;SDS011;60055;41.884;12.534;2023-03-11T03:10:31;28.10;;;9.50;;
33413;SDS011;60055;41.884;12.534;2023-03-11T03:12:56;24.90;;;9.15;;
33413;SDS011;60055;41.884;12.534;2023-03-11T03:15:22;25.63;;;9.15;;
33413;SDS011;60055;41.884;12.534;2023-03-11T03:17:47;28.15;;;8.88;;
33413;SDS011;60055;41.884;12.534;2023-03-11T03:20:15;24.98;;;9.32;;
33413;SDS011;60055;41.884;12.534;2023-03-11T03:22:41;30.30;;;9.52;;
33413;SDS011;60055;41.884;12.534;2023-03-11T03:25:07;25.70;;;8.70;;
33413;SDS011;60055;41.884;12.534;2023-03-11T03:27:33;30.50;;;9.30;;
33413;SDS011;60055;41.884;12.534;2023-03-11T03:29:59;22.55;;;8.23;;
33413;SDS011;60055;41.884;12.534;2023-03-11T03:32:24;27.33;;;8.77;;
33413;SDS011;60055;41.884;12.534;2023-03-11T03:34:49;25.45;;;8.25;;
33413;SDS011;60055;41.884;12.534;2023-03-11T03:37:15;22.00;;;8.30;;
33413;SDS011;60055;41.884;12.534;2023-03-11T03:39:40;28.02;;;8.02;;
33413;SDS011;60055;41.884;12.534;2023-03-11T03:42:06;23.83;;;7.75;;
33413;SDS011;60055;41.884;12.534;2023-03-11T03:44:31;24.77;;;8.27;;
33413;SDS011;60055;41.884;12.534;2023-03-11T03:46:57;22.10;;;7.60;;
33413;SDS011;60055;41.884;12.534;2023-03-11T03:49:23;26.42;;;7.45;;
33413;SDS011;60055;41.884;12.534;2023-03-11T03:51:48;21.98;;;7.55;;
33413;SDS011;60055;41.884;12.534;2023-03-11T03:54:13;22.70;;;7.30;;
33413;SDS011;60055;41.884;12.534;2023-03-11T03:56:39;25.75;;;7.00;;
33413;SDS011;60055;41.884;12.534;2023-03-11T03:59:05;22.58;;;6.40;;
33413;SDS011;60055;41.884;12.534;2023-03-11T04:01:31;24.38;;;6.55;;
33413;SDS011;60055;41.884;12.534;2023-03-11T04:03:56;24.35;;;6.57;;
33413;SDS011;60055;41.884;12.534;2023-03-11T04:06:23;25.48;;;6.43;;
33413;SDS011;60055;41.884;12.534;2023-03-11T04:08:50;24.67;;;6.85;;
33413;SDS011;60055;41.884;12.534;2023-03-11T04:11:16;27.80;;;6.95;;
33413;SDS011;60055;41.884;12.534;2023-03-11T04:13:43;20.45;;;7.05;;
33413;SDS011;60055;41.884;12.534;2023-03-11T04:16:09;20.58;;;6.95;;
33413;SDS011;60055;41.884;12.534;2023-03-11T04:18:41;22.83;;;7.07;;
33413;SDS011;60055;41.884;12.534;2023-03-11T04:21:07;24.30;;;7.78;;
33413;SDS011;60055;41.884;12.534;2023-03-11T04:23:32;20.70;;;7.85;;
33413;SDS011;60055;41.884;12.534;2023-03-11T04:25:58;25.13;;;7.22;;
33413;SDS011;60055;41.884;12.534;2023-03-11T04:28:24;23.27;;;7.75;;
33413;SDS011;60055;41.884;12.534;2023-03-11T04:30:49;26.65;;;7.72;;
33413;SDS011;60055;41.884;12.534;2023-03-11T04:33:15;25.08;;;7.82;;
33413;SDS011;60055;41.884;12.534;2023-03-11T04:35:40;25.63;;;7.13;;
33413;SDS011;60055;41.884;12.534;2023-03-11T04:38:05;18.60;;;7.35;;
33413;SDS011;60055;41.884;12.534;2023-03-11T04:40:31;19.38;;;6.93;;
33413;SDS011;60055;41.884;12.534;2023-03-11T04:42:56;19.08;;;6.97;;
33413;SDS011;60055;41.884;12.534;2023-03-11T04:45:21;20.92;;;6.93;;
33413;SDS011;60055;41.884;12.534;2023-03-11T04:47:48;21.05;;;6.80;;
33413;SDS011;60055;41.884;12.534;2023-03-11T04:50:16;20.98;;;6.80;;
33413;SDS011;60055;41.884;12.534;2023-03-11T04:52:42;19.65;;;6.50;;
33413;SDS011;60055;41.884;12.534;2023-03-11T04:55:08;20.33;;;7.20;;
33413;SDS011;60055;41.884;12.534;2023-03-11T04:57:34;25.83;;;7.70;;
33413;SDS011;60055;41.884;12.534;2023-03-11T04:59:59;25.48;;;7.60;;
33413;SDS011;60055;41.884;12.534;2023-03-11T05:02:24;20.40;;;7.13;;
33413;SDS011;60055;41.884;12.534;2023-03-11T05:04:50;22.20;;;7.55;;
33413;SDS011;60055;41.884;12.534;2023-03-11T05:07:16;26.48;;;7.50;;
33413;SDS011;60055;41.884;12.534;2023-03-11T05:09:43;22.60;;;7.65;;
33413;SDS011;60055;41.884;12.534;2023-03-11T05:12:10;20.48;;;7.60;;
33413;SDS011;60055;41.884;12.534;2023-03-11T05:14:37;25.30;;;7.70;;
33413;SDS011;60055;41.884;12.534;2023-03-11T05:17:03;19.88;;;7.20;;
33413;SDS011;60055;41.884;12.534;2023-03-11T05:19:28;27.02;;;8.35;;
33413;SDS011;60055;41.884;12.534;2023-03-11T05:21:59;25.33;;;8.63;;
33413;SDS011;60055;41.884;12.534;2023-03-11T05:24:28;27.75;;;8.63;;
33413;SDS011;60055;41.884;12.534;2023-03-11T05:26:54;24.25;;;8.52;;
33413;SDS011;60055;41.884;12.534;2023-03-11T05:29:20;27.45;;;8.32;;
33413;SDS011;60055;41.884;12.534;2023-03-11T05:31:46;24.50;;;8.32;;
33413;SDS011;60055;41.884;12.534;2023-03-11T05:34:15;23.23;;;8.65;;
33413;SDS011;60055;41.884;12.534;2023-03-11T05:36:41;23.60;;;7.88;;
33413;SDS011;60055;41.884;12.534;2023-03-11T05:39:07;21.67;;;7.88;;
33413;SDS011;60055;41.884;12.534;2023-03-11T05:41:32;26.00;;;8.55;;
33413;SDS011;60055;41.884;12.534;2023-03-11T05:43:57;25.38;;;8.70;;
33413;SDS011;60055;41.884;12.534;2023-03-11T05:46:23;26.98;;;8.30;;
33413;SDS011;60055;41.884;12.534;2023-03-11T05:48:48;23.83;;;8.27;;
33413;SDS011;60055;41.884;12.534;2023-03-11T05:51:15;23.23;;;8.15;;
33413;SDS011;60055;41.884;12.534;2023-03-11T05:53:48;21.20;;;8.52;;
33413;SDS011;60055;41.884;12.534;2023-03-11T05:56:14;25.58;;;9.70;;
33413;SDS011;60055;41.884;12.534;2023-03-11T05:58:40;22.58;;;8.40;;
33413;SDS011;60055;41.884;12.534;2023-03-11T06:01:07;20.13;;;8.52;;
33413;SDS011;60055;41.884;12.534;2023-03-11T06:03:36;26.42;;;11.05;;
33413;SDS011;60055;41.884;12.534;2023-03-11T06:06:03;26.42;;;9.98;;
33413;SDS011;60055;41.884;12.534;2023-03-11T06:08:30;21.77;;;9.07;;
33413;SDS011;60055;41.884;12.534;2023-03-11T06:11:01;34.88;;;9.50;;
33413;SDS011;60055;41.884;12.534;2023-03-11T06:13:30;27.10;;;9.18;;
33413;SDS011;60055;41.884;12.534;2023-03-11T06:15:55;27.88;;;9.45;;
33413;SDS011;60055;41.884;12.534;2023-03-11T06:18:20;23.23;;;9.07;;
33413;SDS011;60055;41.884;12.534;2023-03-11T06:20:46;22.33;;;8.10;;
33413;SDS011;60055;41.884;12.534;2023-03-11T06:23:13;25.23;;;8.30;;
33413;SDS011;60055;41.884;12.534;2023-03-11T06:25:39;26.70;;;8.02;;
33413;SDS011;60055;41.884;12.534;2023-03-11T06:28:04;24.67;;;8.88;;
33413;SDS011;60055;41.884;12.534;2023-03-11T06:30:30;23.45;;;8.45;;
33413;SDS011;60055;41.884;12.534;2023-03-11T06:32:55;18.98;;;8.00;;
33413;SDS011;60055;41.884;12.534;2023-03-11T06:35:21;23.70;;;9.60;;
33413;SDS011;60055;41.884;12.534;2023-03-11T06:37:46;26.05;;;8.65;;
33413;SDS011;60055;41.884;12.534;2023-03-11T06:40:14;23.10;;;8.73;;
33413;SDS011;60055;41.884;12.534;2023-03-11T06:42:40;25.80;;;9.05;;
33413;SDS011;60055;41.884;12.534;2023-03-11T06:45:05;20.20;;;8.25;;
33413;SDS011;60055;41.884;12.534;2023-03-11T06:47:31;27.50;;;8.05;;
33413;SDS011;60055;41.884;12.534;2023-03-11T06:49:57;26.98;;;8.30;;
33413;SDS011;60055;41.884;12.534;2023-03-11T06:52:22;24.30;;;8.65;;
33413;SDS011;60055;41.884;12.534;2023-03-11T06:54:48;23.55;;;8.00;;
33413;SDS011;60055;41.884;12.534;2023-03-11T06:57:13;20.45;;;6.72;;
33413;SDS011;60055;41.884;12.534;2023-03-11T06:59:40;28.45;;;7.70;;
33413;SDS011;60055;41.884;12.534;2023-03-11T07:02:05;23.83;;;8.00;;
33413;SDS011;60055;41.884;12.534;2023-03-11T07:04:32;21.15;;;7.00;;
33413;SDS011;60055;41.884;12.534;2023-03-11T07:06:57;22.40;;;7.53;;
33413;SDS011;60055;41.884;12.534;2023-03-11T07:09:23;27.38;;;6.65;;
33413;SDS011;60055;41.884;12.534;2023-03-11T07:11:50;23.33;;;7.43;;
33413;SDS011;60055;41.884;12.534;2023-03-11T07:14:16;22.92;;;6.75;;
33413;SDS011;60055;41.884;12.534;2023-03-11T07:16:43;25.05;;;6.63;;
33413;SDS011;60055;41.884;12.534;2023-03-11T07:19:09;21.92;;;6.43;;
33413;SDS011;60055;41.884;12.534;2023-03-11T07:21:37;19.00;;;5.90;;
33413;SDS011;60055;41.884;12.534;2023-03-11T07:24:03;24.27;;;6.22;;
33413;SDS011;60055;41.884;12.534;2023-03-11T07:26:30;25.00;;;6.90;;
33413;SDS011;60055;41.884;12.534;2023-03-11T07:28:56;28.98;;;6.85;;
33413;SDS011;60055;41.884;12.534;2023-03-11T07:31:24;23.48;;;6.35;;
33413;SDS011;60055;41.884;12.534;2023-03-11T07:33:51;22.00;;;6.22;;
33413;SDS011;60055;41.884;12.534;2023-03-11T07:36:17;22.23;;;6.43;;
33413;SDS011;60055;41.884;12.534;2023-03-11T07:38:46;22.55;;;6.60;;
33413;SDS011;60055;41.884;12.534;2023-03-11T07:41:14;19.63;;;5.57;;
33413;SDS011;60055;41.884;12.534;2023-03-11T07:43:40;25.27;;;6.22;;
33413;SDS011;60055;41.884;12.534;2023-03-11T07:46:09;23.65;;;5.88;;
33413;SDS011;60055;41.884;12.534;2023-03-11T07:48:42;20.00;;;6.03;;
33413;SDS011;60055;41.884;12.534;2023-03-11T07:51:11;21.55;;;6.65;;
33413;SDS011;60055;41.884;12.534;2023-03-11T07:53:39;23.63;;;6.13;;
33413;SDS011;60055;41.884;12.534;2023-03-11T07:56:08;26.90;;;6.68;;
33413;SDS011;60055;41.884;12.534;2023-03-11T07:58:36;22.40;;;6.47;;
33413;SDS011;60055;41.884;12.534;2023-03-11T08:01:05;26.48;;;6.63;;
33413;SDS011;60055;41.884;12.534;2023-03-11T08:03:32;24.88;;;6.90;;
33413;SDS011;60055;41.884;12.534;2023-03-11T08:05:58;20.25;;;6.80;;
33413;SDS011;60055;41.884;12.534;2023-03-11T08:08:23;27.10;;;7.22;;
33413;SDS011;60055;41.884;12.534;2023-03-11T08:10:49;26.42;;;7.97;;
33413;SDS011;60055;41.884;12.534;2023-03-11T08:13:14;24.67;;;7.85;;
33413;SDS011;60055;41.884;12.534;2023-03-11T08:15:40;24.27;;;7.07;;
33413;SDS011;60055;41.884;12.534;2023-03-11T08:18:05;21.05;;;7.28;;
33413;SDS011;60055;41.884;12.534;2023-03-11T08:20:31;27.10;;;7.13;;
33413;SDS011;60055;41.884;12.534;2023-03-11T08:22:56;26.00;;;7.18;;
33413;SDS011;60055;41.884;12.534;2023-03-11T08:25:22;25.27;;;7.82;;
33413;SDS011;60055;41.884;12.534;2023-03-11T08:27:47;24.30;;;7.28;;
33413;SDS011;60055;41.884;12.534;2023-03-11T08:30:13;24.00;;;8.15;;
33413;SDS011;60055;41.884;12.534;2023-03-11T08:32:38;24.92;;;7.78;;
33413;SDS011;60055;41.884;12.534;2023-03-11T08:35:04;27.27;;;8.25;;
33413;SDS011;60055;41.884;12.534;2023-03-11T08:37:30;25.35;;;8.32;;
33413;SDS011;60055;41.884;12.534;2023-03-11T08:39:55;26.88;;;7.93;;
33413;SDS011;60055;41.884;12.534;2023-03-11T08:42:21;25.10;;;7.95;;
33413;SDS011;60055;41.884;12.534;2023-03-11T08:44:46;35.08;;;9.75;;
33413;SDS011;60055;41.884;12.534;2023-03-11T08:47:12;32.78;;;8.25;;
33413;SDS011;60055;41.884;12.534;2023-03-11T08:49:37;26.98;;;7.90;;
33413;SDS011;60055;41.884;12.534;2023-03-11T08:52:03;21.23;;;7.78;;
33413;SDS011;60055;41.884;12.534;2023-03-11T08:54:29;32.00;;;8.10;;
33413;SDS011;60055;41.884;12.534;2023-03-11T08:56:55;26.35;;;8.05;;
33413;SDS011;60055;41.884;12.534;2023-03-11T08:59:20;26.85;;;8.57;;
33413;SDS011;60055;41.884;12.534;2023-03-11T09:01:45;33.80;;;9.13;;
33413;SDS011;60055;41.884;12.534;2023-03-11T09:04:14;27.33;;;8.73;;
33413;SDS011;60055;41.884;12.534;2023-03-11T09:06:42;31.10;;;8.63;;
33413;SDS011;60055;41.884;12.534;2023-03-11T09:09:09;28.20;;;9.00;;
33413;SDS011;60055;41.884;12.534;2023-03-11T09:11:35;24.52;;;8.82;;
33413;SDS011;60055;41.884;12.534;2023-03-11T09:14:01;31.00;;;8.93;;
33413;SDS011;60055;41.884;12.534;2023-03-11T09:16:27;25.98;;;8.23;;
33413;SDS011;60055;41.884;12.534;2023-03-11T09:18:52;30.83;;;8.85;;
33413;SDS011;60055;41.884;12.534;2023-03-11T09:21:18;30.17;;;9.07;;
33413;SDS011;60055;41.884;12.534;2023-03-11T09:23:45;28.80;;;9.18;;
33413;SDS011;60055;41.884;12.534;2023-03-11T09:26:12;26.60;;;9.10;;
33413;SDS011;60055;41.884;12.534;2023-03-11T09:28:38;29.92;;;8.90;;
33413;SDS011;60055;41.884;12.534;2023-03-11T09:31:04;31.77;;;9.10;;
33413;SDS011;60055;41.884;12.534;2023-03-11T09:33:30;26.70;;;8.70;;
33413;SDS011;60055;41.884;12.534;2023-03-11T09:35:59;33.50;;;9.18;;
33413;SDS011;60055;41.884;12.534;2023-03-11T09:38:25;30.85;;;8.82;;
33413;SDS011;60055;41.884;12.534;2023-03-11T09:40:53;29.95;;;9.93;;
33413;SDS011;60055;41.884;12.534;2023-03-11T09:51:15;26.48;;;8.75;;
33413;SDS011;60055;41.884;12.534;2023-03-11T09:53:54;26.25;;;8.50;;
33413;SDS011;60055;41.884;12.534;2023-03-11T09:56:27;30.70;;;9.68;;
33413;SDS011;60055;41.884;12.534;2023-03-11T09:58:55;33.17;;;8.73;;
33413;SDS011;60055;41.884;12.534;2023-03-11T10:01:27;34.72;;;9.05;;
33413;SDS011;60055;41.884;12.534;2023-03-11T10:04:01;32.47;;;9.20;;
33413;SDS011;60055;41.884;12.534;2023-03-11T10:06:28;26.80;;;8.70;;
33413;SDS011;60055;41.884;12.534;2023-03-11T10:09:20;34.85;;;9.07;;
33413;SDS011;60055;41.884;12.534;2023-03-11T10:19:55;37.65;;;9.80;;
33413;SDS011;60055;41.884;12.534;2023-03-11T10:25:19;30.10;;;8.30;;
33413;SDS011;60055;41.884;12.534;2023-03-11T10:27:51;37.25;;;10.38;;
33413;SDS011;60055;41.884;12.534;2023-03-11T10:35:48;29.45;;;9.13;;
33413;SDS011;60055;41.884;12.534;2023-03-11T10:40:58;33.38;;;9.77;;
33413;SDS011;60055;41.884;12.534;2023-03-11T10:43:38;26.10;;;9.35;;
33413;SDS011;60055;41.884;12.534;2023-03-11T10:46:19;30.27;;;8.95;;
33413;SDS011;60055;41.884;12.534;2023-03-11T10:48:48;32.45;;;9.15;;
33413;SDS011;60055;41.884;12.534;2023-03-11T10:51:21;27.67;;;8.85;;
33413;SDS011;60055;41.884;12.534;2023-03-11T10:53:52;32.25;;;9.18;;
33413;SDS011;60055;41.884;12.534;2023-03-11T10:56:36;31.98;;;9.00;;
33413;SDS011;60055;41.884;12.534;2023-03-11T11:01:53;29.63;;;8.82;;
33413;SDS011;60055;41.884;12.534;2023-03-11T11:04:30;32.63;;;8.73;;
33413;SDS011;60055;41.884;12.534;2023-03-11T11:07:34;26.65;;;7.60;;
33413;SDS011;60055;41.884;12.534;2023-03-11T11:10:32;31.77;;;8.20;;
33413;SDS011;60055;41.884;12.534;2023-03-11T11:18:01;30.42;;;8.13;;
33413;SDS011;60055;41.884;12.534;2023-03-11T11:20:28;27.30;;;7.40;;
33413;SDS011;60055;41.884;12.534;2023-03-11T11:22:57;26.58;;;6.45;;
33413;SDS011;60055;41.884;12.534;2023-03-11T11:27:56;24.40;;;5.28;;
33413;SDS011;60055;41.884;12.534;2023-03-11T11:30:24;22.17;;;4.88;;
33413;SDS011;60055;41.884;12.534;2023-03-11T11:32:50;18.80;;;5.13;;
33413;SDS011;60055;41.884;12.534;2023-03-11T11:35:18;21.10;;;5.07;;
33413;SDS011;60055;41.884;12.534;2023-03-11T11:37:46;22.40;;;4.55;;
33413;SDS011;60055;41.884;12.534;2023-03-11T11:42:43;19.60;;;4.65;;
33413;SDS011;60055;41.884;12.534;2023-03-11T11:45:18;19.70;;;4.78;;
33413;SDS011;60055;41.884;12.534;2023-03-11T11:47:53;19.60;;;4.47;;
33413;SDS011;60055;41.884;12.534;2023-03-11T11:53:10;23.80;;;4.13;;
33413;SDS011;60055;41.884;12.534;2023-03-11T11:55:42;20.30;;;4.15;;
33413;SDS011;60055;41.884;12.534;2023-03-11T12:06:24;15.68;;;3.72;;
33413;SDS011;60055;41.884;12.534;2023-03-11T12:11:41;28.80;;;4.80;;
33413;SDS011;60055;41.884;12.534;2023-03-11T12:16:58;18.85;;;4.07;;
33413;SDS011;60055;41.884;12.534;2023-03-11T12:19:30;15.40;;;4.18;;
33413;SDS011;60055;41.884;12.534;2023-03-11T12:27:32;17.25;;;4.05;;
33413;SDS011;60055;41.884;12.534;2023-03-11T12:30:25;21.42;;;3.88;;
33413;SDS011;60055;41.884;12.534;2023-03-11T14:08:52;15.60;;;4.15;;
33413;SDS011;60055;41.884;12.534;2023-03-11T14:11:19;19.42;;;4.20;;
33413;SDS011;60055;41.884;12.534;2023-03-11T14:13:51;22.15;;;4.60;;
33413;SDS011;60055;41.884;12.534;2023-03-11T14:21:26;17.42;;;5.03;;
33413;SDS011;60055;41.884;12.534;2023-03-11T14:23:52;17.90;;;5.00;;
33413;SDS011;60055;41.884;12.534;2023-03-11T14:26:20;21.08;;;5.50;;
33413;SDS011;60055;41.884;12.534;2023-03-11T14:28:54;21.00;;;5.80;;
33413;SDS011;60055;41.884;12.534;2023-03-11T14:34:20;21.55;;;6.60;;
33413;SDS011;60055;41.884;12.534;2023-03-11T14:44:30;17.98;;;4.95;;
33413;SDS011;60055;41.884;12.534;2023-03-11T14:47:07;17.10;;;5.75;;
33413;SDS011;60055;41.884;12.534;2023-03-11T14:49:38;17.83;;;5.05;;
33413;SDS011;60055;41.884;12.534;2023-03-11T14:52:07;18.08;;;4.63;;
33413;SDS011;60055;41.884;12.534;2023-03-11T14:54:39;17.63;;;4.68;;
33413;SDS011;60055;41.884;12.534;2023-03-11T14:57:06;18.92;;;4.50;;
33413;SDS011;60055;41.884;12.534;2023-03-11T14:59:45;12.60;;;4.55;;
33413;SDS011;60055;41.884;12.534;2023-03-11T15:05:02;18.75;;;4.60;;
33413;SDS011;60055;41.884;12.534;2023-03-11T15:07:35;20.87;;;4.83;;
33413;SDS011;60055;41.884;12.534;2023-03-11T15:10:05;18.33;;;4.95;;
33413;SDS011;60055;41.884;12.534;2023-03-11T15:12:36;18.88;;;4.97;;
33413;SDS011;60055;41.884;12.534;2023-03-11T15:15:21;16.52;;;5.00;;
33413;SDS011;60055;41.884;12.534;2023-03-11T15:17:56;17.13;;;5.25;;
33413;SDS011;60055;41.884;12.534;2023-03-11T15:22:53;17.88;;;5.10;;
33413;SDS011;60055;41.884;12.534;2023-03-11T15:25:22;15.98;;;5.28;;
33413;SDS011;60055;41.884;12.534;2023-03-11T15:27:47;21.13;;;5.88;;
33413;SDS011;60055;41.884;12.534;2023-03-11T15:30:26;19.05;;;5.55;;
33413;SDS011;60055;41.884;12.534;2023-03-11T15:32:54;19.95;;;5.47;;
33413;SDS011;60055;41.884;12.534;2023-03-11T15:35:22;20.92;;;6.00;;
33413;SDS011;60055;41.884;12.534;2023-03-11T15:38:11;23.38;;;5.93;;
33413;SDS011;60055;41.884;12.534;2023-03-11T15:40:37;19.60;;;6.45;;
33413;SDS011;60055;41.884;12.534;2023-03-11T15:45:40;26.67;;;7.25;;
33413;SDS011;60055;41.884;12.534;2023-03-11T15:48:07;19.50;;;7.22;;
33413;SDS011;60055;41.884;12.534;2023-03-11T15:50:34;23.02;;;7.20;;
33413;SDS011;60055;41.884;12.534;2023-03-11T15:52:59;19.17;;;7.15;;
33413;SDS011;60055;41.884;12.534;2023-03-11T15:55:25;18.65;;;6.80;;
33413;SDS011;60055;41.884;12.534;2023-03-11T15:58:01;20.63;;;6.40;;
33413;SDS011;60055;41.884;12.534;2023-03-11T16:00:30;16.60;;;5.40;;
33413;SDS011;60055;41.884;12.534;2023-03-11T16:02:56;21.35;;;5.90;;
33413;SDS011;60055;41.884;12.534;2023-03-11T16:05:22;22.17;;;6.55;;
33413;SDS011;60055;41.884;12.534;2023-03-11T16:07:48;18.83;;;6.32;;
33413;SDS011;60055;41.884;12.534;2023-03-11T16:10:17;18.65;;;6.30;;
33413;SDS011;60055;41.884;12.534;2023-03-11T16:12:44;19.48;;;7.13;;
33413;SDS011;60055;41.884;12.534;2023-03-11T16:15:31;21.02;;;8.18;;
33413;SDS011;60055;41.884;12.534;2023-03-11T16:18:01;18.98;;;8.32;;
33413;SDS011;60055;41.884;12.534;2023-03-11T16:20:30;20.80;;;9.98;;
33413;SDS011;60055;41.884;12.534;2023-03-11T16:22:58;27.65;;;12.75;;
33413;SDS011;60055;41.884;12.534;2023-03-11T16:25:29;21.20;;;9.10;;
33413;SDS011;60055;41.884;12.534;2023-03-11T16:27:58;20.85;;;9.05;;
33413;SDS011;60055;41.884;12.534;2023-03-11T16:30:24;19.75;;;8.38;;
33413;SDS011;60055;41.884;12.534;2023-03-11T16:32:52;21.50;;;8.38;;
33413;SDS011;60055;41.884;12.534;2023-03-11T16:35:17;26.27;;;11.93;;
33413;SDS011;60055;41.884;12.534;2023-03-11T16:37:43;33.53;;;17.00;;
33413;SDS011;60055;41.884;12.534;2023-03-11T16:40:16;21.98;;;10.02;;
33413;SDS011;60055;41.884;12.534;2023-03-11T16:42:45;25.35;;;10.25;;
33413;SDS011;60055;41.884;12.534;2023-03-11T16:45:13;18.95;;;10.27;;
33413;SDS011;60055;41.884;12.534;2023-03-11T16:47:40;24.23;;;8.38;;
33413;SDS011;60055;41.884;12.534;2023-03-11T16:50:08;26.08;;;9.40;;
33413;SDS011;60055;41.884;12.534;2023-03-11T16:52:34;19.45;;;7.70;;
33413;SDS011;60055;41.884;12.534;2023-03-11T16:54:59;24.25;;;8.02;;
33413;SDS011;60055;41.884;12.534;2023-03-11T16:57:24;21.25;;;8.30;;
33413;SDS011;60055;41.884;12.534;2023-03-11T16:59:50;20.00;;;7.80;;
33413;SDS011;60055;41.884;12.534;2023-03-11T17:02:16;21.80;;;8.00;;
33413;SDS011;60055;41.884;12.534;2023-03-11T17:04:42;20.73;;;8.52;;
33413;SDS011;60055;41.884;12.534;2023-03-11T17:07:07;22.77;;;8.27;;
33413;SDS011;60055;41.884;12.534;2023-03-11T17:09:33;22.02;;;9.40;;
33413;SDS011;60055;41.884;12.534;2023-03-11T17:11:59;23.08;;;8.43;;
33413;SDS011;60055;41.884;12.534;2023-03-11T17:14:25;22.25;;;8.02;;
33413;SDS011;60055;41.884;12.534;2023-03-11T17:16:50;22.20;;;8.45;;
33413;SDS011;60055;41.884;12.534;2023-03-11T17:19:16;23.40;;;8.07;;
33413;SDS011;60055;41.884;12.534;2023-03-11T17:21:41;21.90;;;8.13;;
33413;SDS011;60055;41.884;12.534;2023-03-11T17:24:07;23.88;;;7.40;;
33413;SDS011;60055;41.884;12.534;2023-03-11T17:26:33;21.95;;;8.00;;
33413;SDS011;60055;41.884;12.534;2023-03-11T17:28:59;21.48;;;8.00;;
33413;SDS011;60055;41.884;12.534;2023-03-11T17:31:25;22.77;;;8.15;;